sensor_id;sensor_type;location;lat;lon;timestamp;P1;durP1;ratioP1;P2;durP2;ratioP2
44854;SDS011;30591;48.228;16.398;2023-08-07T14:04:32;0.30;;;0.30;;
44854;SDS011;30591;48.228;16.398;2023-08-07T14:07:00;0.40;;;0.40;;
44854;SDS011;30591;48.228;16.398;2023-08-07T14:09:28;0.50;;;0.50;;
44854;SDS011;30591;48.228;16.398;2023-08-07T14:11:55;0.30;;;0.30;;
44854;SDS011;30591;48.228;16.398;2023-08-07T14:14:24;0.30;;;0.30;;
44854;SDS011;30591;48.228;16.398;2023-08-07T14:16:52;0.20;;;0.20;;
44854;SDS011;30591;48.228;16.398;2023-08-07T14:19:23;0.40;;;0.40;;
44854;SDS011;30591;48.228;16.398;2023-08-07T14:21:51;0.30;;;0.30;;
44854;SDS011;30591;48.228;16.398;2023-08-07T14:24:19;0.30;;;0.30;;
44854;SDS011;30591;48.228;16.398;2023-08-07T14:26:46;0.40;;;0.40;;
44854;SDS011;30591;48.228;16.398;2023-08-07T14:29:13;0.40;;;0.40;;
44854;SDS011;30591;48.228;16.398;2023-08-07T14:31:41;0.85;;;0.50;;
44854;SDS011;30591;48.228;16.398;2023-08-07T14:34:08;0.50;;;0.50;;
44854;SDS011;30591;48.228;16.398;2023-08-07T14:36:35;0.68;;;0.68;;
44854;SDS011;30591;48.228;16.398;2023-08-07T14:39:03;0.70;;;0.70;;
44854;SDS011;30591;48.228;16.398;2023-08-07T14:41:30;0.70;;;0.70;;
44854;SDS011;30591;48.228;16.398;2023-08-07T14:43:58;0.80;;;0.80;;
44854;SDS011;30591;48.228;16.398;2023-08-07T14:46:25;0.80;;;0.80;;
44854;SDS011;30591;48.228;16.398;2023-08-07T14:48:52;0.85;;;0.85;;
44854;SDS011;30591;48.228;16.398;2023-08-07T14:51:20;0.82;;;0.82;;
44854;SDS011;30591;48.228;16.398;2023-08-07T14:53:47;0.80;;;0.80;;
44854;SDS011;30591;48.228;16.398;2023-08-07T14:56:14;0.90;;;0.90;;
44854;SDS011;30591;48.228;16.398;2023-08-07T14:58:41;0.98;;;0.98;;
44854;SDS011;30591;48.228;16.398;2023-08-07T15:01:09;1.00;;;1.00;;
44854;SDS011;30591;48.228;16.398;2023-08-07T15:03:36;0.80;;;0.80;;
44854;SDS011;30591;48.228;16.398;2023-08-07T15:06:04;1.00;;;1.00;;
44854;SDS011;30591;48.228;16.398;2023-08-07T15:08:31;0.90;;;0.90;;
44854;SDS011;30591;48.228;16.398;2023-08-07T15:11:00;1.13;;;1.13;;
44854;SDS011;30591;48.228;16.398;2023-08-07T15:13:27;1.00;;;1.00;;
44854;SDS011;30591;48.228;16.398;2023-08-07T15:15:55;1.00;;;1.00;;
44854;SDS011;30591;48.228;16.398;2023-08-07T15:18:23;0.90;;;0.90;;
44854;SDS011;30591;48.228;16.398;2023-08-07T15:20:50;1.00;;;1.00;;
44854;SDS011;30591;48.228;16.398;2023-08-07T15:23:18;0.90;;;0.90;;
44854;SDS011;30591;48.228;16.398;2023-08-07T15:25:46;1.00;;;1.00;;
44854;SDS011;30591;48.228;16.398;2023-08-07T15:28:13;0.93;;;0.93;;
44854;SDS011;30591;48.228;16.398;2023-08-07T15:30:44;0.80;;;0.80;;
44854;SDS011;30591;48.228;16.398;2023-08-07T15:33:17;0.80;;;0.80;;
44854;SDS011;30591;48.228;16.398;2023-08-07T15:35:49;0.80;;;0.80;;
44854;SDS011;30591;48.228;16.398;2023-08-07T15:38:21;0.60;;;0.60;;
44854;SDS011;30591;48.228;16.398;2023-08-07T15:40:50;0.70;;;0.70;;
44854;SDS011;30591;48.228;16.398;2023-08-07T15:43:17;0.70;;;0.70;;
44854;SDS011;30591;48.228;16.398;2023-08-07T15:45:45;0.30;;;0.30;;
44854;SDS011;30591;48.228;16.398;2023-08-07T15:48:15;0.43;;;0.43;;
44854;SDS011;30591;48.228;16.398;2023-08-07T15:50:43;0.30;;;0.30;;
44854;SDS011;30591;48.228;16.398;2023-08-07T15:53:11;0.30;;;0.30;;
44854;SDS011;30591;48.228;16.398;2023-08-07T15:55:38;0.20;;;0.20;;
44854;SDS011;30591;48.228;16.398;2023-08-07T15:58:05;0.20;;;0.20;;
44854;SDS011;30591;48.228;16.398;2023-08-07T16:00:33;0.10;;;0.10;;
44854;SDS011;30591;48.228;16.398;2023-08-07T16:03:02;0.10;;;0.10;;
44854;SDS011;30591;48.228;16.398;2023-08-07T16:05:31;0.10;;;0.10;;
44854;SDS011;30591;48.228;16.398;2023-08-07T16:08:00;0.10;;;0.10;;
44854;SDS011;30591;48.228;16.398;2023-08-07T16:10:30;0.10;;;0.10;;
44854;SDS011;30591;48.228;16.398;2023-08-07T16:12:58;0.10;;;0.10;;
44854;SDS011;30591;48.228;16.398;2023-08-07T16:15:26;0.20;;;0.20;;
44854;SDS011;30591;48.228;16.398;2023-08-07T16:17:54;0.10;;;0.10;;
44854;SDS011;30591;48.228;16.398;2023-08-07T16:20:21;0.10;;;0.10;;
44854;SDS011;30591;48.228;16.398;2023-08-07T16:22:48;0.20;;;0.20;;
44854;SDS011;30591;48.228;16.398;2023-08-07T16:25:17;0.10;;;0.10;;
44854;SDS011;30591;48.228;16.398;2023-08-07T16:27:44;0.20;;;0.20;;
44854;SDS011;30591;48.228;16.398;2023-08-07T16:30:12;0.17;;;0.17;;
44854;SDS011;30591;48.228;16.398;2023-08-07T16:32:39;0.10;;;0.10;;
44854;SDS011;30591;48.228;16.398;2023-08-07T16:35:06;0.17;;;0.17;;
44854;SDS011;30591;48.228;16.398;2023-08-07T16:37:34;0.10;;;0.10;;
44854;SDS011;30591;48.228;16.398;2023-08-07T16:40:03;0.20;;;0.20;;
44854;SDS011;30591;48.228;16.398;2023-08-07T16:42:32;0.10;;;0.10;;
44854;SDS011;30591;48.228;16.398;2023-08-07T16:44:59;0.10;;;0.10;;
44854;SDS011;30591;48.228;16.398;2023-08-07T16:47:26;0.10;;;0.10;;
44854;SDS011;30591;48.228;16.398;2023-08-07T16:49:54;0.20;;;0.20;;
44854;SDS011;30591;48.228;16.398;2023-08-07T16:52:21;0.20;;;0.20;;
44854;SDS011;30591;48.228;16.398;2023-08-07T16:54:48;0.70;;;0.70;;
44854;SDS011;30591;48.228;16.398;2023-08-07T16:57:20;0.10;;;0.10;;
44854;SDS011;30591;48.228;16.398;2023-08-07T16:59:48;0.20;;;0.20;;
44854;SDS011;30591;48.228;16.398;2023-08-07T17:02:15;0.20;;;0.20;;
44854;SDS011;30591;48.228;16.398;2023-08-07T17:04:42;0.33;;;0.33;;
44854;SDS011;30591;48.228;16.398;2023-08-07T17:07:10;0.10;;;0.10;;
44854;SDS011;30591;48.228;16.398;2023-08-07T17:09:38;0.20;;;0.20;;
44854;SDS011;30591;48.228;16.398;2023-08-07T17:12:05;0.10;;;0.10;;
44854;SDS011;30591;48.228;16.398;2023-08-07T17:14:34;0.10;;;0.10;;
44854;SDS011;30591;48.228;16.398;2023-08-07T17:17:01;0.10;;;0.10;;
44854;SDS011;30591;48.228;16.398;2023-08-07T17:19:28;0.10;;;0.10;;
44854;SDS011;30591;48.228;16.398;2023-08-07T17:21:56;0.10;;;0.10;;
44854;SDS011;30591;48.228;16.398;2023-08-07T17:24:24;0.10;;;0.10;;
44854;SDS011;30591;48.228;16.398;2023-08-07T17:26:51;0.20;;;0.20;;
44854;SDS011;30591;48.228;16.398;2023-08-07T17:29:19;0.20;;;0.20;;
44854;SDS011;30591;48.228;16.398;2023-08-07T17:31:46;0.10;;;0.10;;
44854;SDS011;30591;48.228;16.398;2023-08-07T17:34:13;0.10;;;0.10;;
44854;SDS011;30591;48.228;16.398;2023-08-07T17:36:41;0.10;;;0.10;;
44854;SDS011;30591;48.228;16.398;2023-08-07T17:39:09;0.30;;;0.30;;
44854;SDS011;30591;48.228;16.398;2023-08-07T17:41:36;0.10;;;0.10;;
44854;SDS011;30591;48.228;16.398;2023-08-07T17:44:04;0.10;;;0.10;;
44854;SDS011;30591;48.228;16.398;2023-08-07T17:46:31;0.10;;;0.10;;
44854;SDS011;30591;48.228;16.398;2023-08-07T17:48:59;0.10;;;0.10;;
44854;SDS011;30591;48.228;16.398;2023-08-07T17:51:27;0.10;;;0.10;;
44854;SDS011;30591;48.228;16.398;2023-08-07T17:53:55;0.20;;;0.20;;
44854;SDS011;30591;48.228;16.398;2023-08-07T17:56:23;0.10;;;0.10;;
44854;SDS011;30591;48.228;16.398;2023-08-07T17:58:51;0.10;;;0.10;;
44854;SDS011;30591;48.228;16.398;2023-08-07T18:01:18;0.10;;;0.10;;
44854;SDS011;30591;48.228;16.398;2023-08-07T18:03:46;0.10;;;0.10;;
44854;SDS011;30591;48.228;16.398;2023-08-07T18:06:13;0.10;;;0.10;;
44854;SDS011;30591;48.228;16.398;2023-08-07T18:08:41;0.10;;;0.10;;
44854;SDS011;30591;48.228;16.398;2023-08-07T18:11:08;0.10;;;0.10;;
44854;SDS011;30591;48.228;16.398;2023-08-07T18:13:36;0.10;;;0.10;;
44854;SDS011;30591;48.228;16.398;2023-08-07T18:16:03;0.10;;;0.10;;
44854;SDS011;30591;48.228;16.398;2023-08-07T18:18:30;0.10;;;0.10;;
44854;SDS011;30591;48.228;16.398;2023-08-07T18:20:58;1.07;;;1.00;;
44854;SDS011;30591;48.228;16.398;2023-08-07T18:23:26;0.10;;;0.10;;
44854;SDS011;30591;48.228;16.398;2023-08-07T18:25:53;0.10;;;0.10;;
44854;SDS011;30591;48.228;16.398;2023-08-07T18:28:21;0.20;;;0.20;;
44854;SDS011;30591;48.228;16.398;2023-08-07T18:30:48;0.33;;;0.33;;
44854;SDS011;30591;48.228;16.398;2023-08-07T18:33:16;0.10;;;0.10;;
44854;SDS011;30591;48.228;16.398;2023-08-07T18:35:43;0.10;;;0.10;;
44854;SDS011;30591;48.228;16.398;2023-08-07T18:38:10;0.10;;;0.10;;
44854;SDS011;30591;48.228;16.398;2023-08-07T18:40:38;0.10;;;0.10;;
44854;SDS011;30591;48.228;16.398;2023-08-07T18:43:05;0.20;;;0.20;;
44854;SDS011;30591;48.228;16.398;2023-08-07T18:45:32;0.10;;;0.10;;
44854;SDS011;30591;48.228;16.398;2023-08-07T18:47:59;0.10;;;0.10;;
44854;SDS011;30591;48.228;16.398;2023-08-07T18:50:26;0.10;;;0.10;;
44854;SDS011;30591;48.228;16.398;2023-08-07T18:52:54;0.10;;;0.10;;
44854;SDS011;30591;48.228;16.398;2023-08-07T18:55:22;0.10;;;0.10;;
44854;SDS011;30591;48.228;16.398;2023-08-07T18:57:50;0.10;;;0.10;;
44854;SDS011;30591;48.228;16.398;2023-08-07T19:00:17;0.40;;;0.40;;
44854;SDS011;30591;48.228;16.398;2023-08-07T19:02:45;0.10;;;0.10;;
44854;SDS011;30591;48.228;16.398;2023-08-07T19:05:13;0.10;;;0.10;;
44854;SDS011;30591;48.228;16.398;2023-08-07T19:07:40;0.10;;;0.10;;
44854;SDS011;30591;48.228;16.398;2023-08-07T19:10:08;0.10;;;0.10;;
44854;SDS011;30591;48.228;16.398;2023-08-07T19:12:36;0.10;;;0.10;;
44854;SDS011;30591;48.228;16.398;2023-08-07T19:15:03;0.10;;;0.10;;
44854;SDS011;30591;48.228;16.398;2023-08-07T19:17:31;0.10;;;0.10;;
44854;SDS011;30591;48.228;16.398;2023-08-07T19:20:00;0.10;;;0.10;;
44854;SDS011;30591;48.228;16.398;2023-08-07T19:22:27;0.10;;;0.10;;
44854;SDS011;30591;48.228;16.398;2023-08-07T19:24:56;0.10;;;0.10;;
44854;SDS011;30591;48.228;16.398;2023-08-07T19:27:24;0.10;;;0.10;;
44854;SDS011;30591;48.228;16.398;2023-08-07T19:29:51;0.10;;;0.10;;
44854;SDS011;30591;48.228;16.398;2023-08-07T19:32:20;0.10;;;0.10;;
44854;SDS011;30591;48.228;16.398;2023-08-07T19:34:47;0.10;;;0.10;;
44854;SDS011;30591;48.228;16.398;2023-08-07T19:37:15;0.10;;;0.10;;
44854;SDS011;30591;48.228;16.398;2023-08-07T19:39:42;0.10;;;0.10;;
44854;SDS011;30591;48.228;16.398;2023-08-07T19:42:09;0.10;;;0.10;;
44854;SDS011;30591;48.228;16.398;2023-08-07T19:44:36;0.10;;;0.10;;
44854;SDS011;30591;48.228;16.398;2023-08-07T19:47:04;0.10;;;0.10;;
44854;SDS011;30591;48.228;16.398;2023-08-07T19:49:31;0.10;;;0.10;;
44854;SDS011;30591;48.228;16.398;2023-08-07T19:51:58;0.10;;;0.10;;
44854;SDS011;30591;48.228;16.398;2023-08-07T19:54:26;0.10;;;0.10;;
44854;SDS011;30591;48.228;16.398;2023-08-07T19:56:54;0.10;;;0.10;;
44854;SDS011;30591;48.228;16.398;2023-08-07T19:59:21;0.10;;;0.10;;
44854;SDS011;30591;48.228;16.398;2023-08-07T20:01:50;0.20;;;0.20;;
44854;SDS011;30591;48.228;16.398;2023-08-07T20:04:17;0.27;;;0.27;;
44854;SDS011;30591;48.228;16.398;2023-08-07T20:06:45;0.20;;;0.20;;
44854;SDS011;30591;48.228;16.398;2023-08-07T20:09:12;0.10;;;0.10;;
44854;SDS011;30591;48.228;16.398;2023-08-07T20:11:40;0.10;;;0.10;;
44854;SDS011;30591;48.228;16.398;2023-08-07T20:14:08;0.10;;;0.10;;
44854;SDS011;30591;48.228;16.398;2023-08-07T20:16:35;0.10;;;0.10;;
44854;SDS011;30591;48.228;16.398;2023-08-07T20:19:02;0.10;;;0.10;;
44854;SDS011;30591;48.228;16.398;2023-08-07T20:21:29;0.10;;;0.10;;
44854;SDS011;30591;48.228;16.398;2023-08-07T20:23:57;0.10;;;0.10;;
44854;SDS011;30591;48.228;16.398;2023-08-07T20:26:24;0.10;;;0.10;;
44854;SDS011;30591;48.228;16.398;2023-08-07T20:28:52;0.10;;;0.10;;
44854;SDS011;30591;48.228;16.398;2023-08-07T20:31:19;0.10;;;0.10;;
44854;SDS011;30591;48.228;16.398;2023-08-07T20:33:47;1.33;;;0.53;;
44854;SDS011;30591;48.228;16.398;2023-08-07T20:36:14;0.10;;;0.10;;
44854;SDS011;30591;48.228;16.398;2023-08-07T20:38:42;0.10;;;0.10;;
44854;SDS011;30591;48.228;16.398;2023-08-07T20:41:09;0.50;;;0.50;;
44854;SDS011;30591;48.228;16.398;2023-08-07T20:43:36;0.10;;;0.10;;
44854;SDS011;30591;48.228;16.398;2023-08-07T20:46:04;0.10;;;0.10;;
44854;SDS011;30591;48.228;16.398;2023-08-07T20:48:31;0.10;;;0.10;;
44854;SDS011;30591;48.228;16.398;2023-08-07T20:50:58;0.57;;;0.57;;
44854;SDS011;30591;48.228;16.398;2023-08-07T20:53:26;0.30;;;0.30;;
44854;SDS011;30591;48.228;16.398;2023-08-07T20:55:53;0.10;;;0.10;;
44854;SDS011;30591;48.228;16.398;2023-08-07T20:58:20;0.10;;;0.10;;
44854;SDS011;30591;48.228;16.398;2023-08-07T21:00:47;0.10;;;0.10;;
44854;SDS011;30591;48.228;16.398;2023-08-07T21:03:15;0.10;;;0.10;;
44854;SDS011;30591;48.228;16.398;2023-08-07T21:05:43;0.10;;;0.10;;
44854;SDS011;30591;48.228;16.398;2023-08-07T21:08:10;0.10;;;0.10;;
44854;SDS011;30591;48.228;16.398;2023-08-07T21:10:38;0.10;;;0.10;;
44854;SDS011;30591;48.228;16.398;2023-08-07T21:13:05;0.10;;;0.10;;
44854;SDS011;30591;48.228;16.398;2023-08-07T21:15:32;0.57;;;0.57;;
44854;SDS011;30591;48.228;16.398;2023-08-07T21:18:00;0.10;;;0.10;;
44854;SDS011;30591;48.228;16.398;2023-08-07T21:20:28;0.10;;;0.10;;
44854;SDS011;30591;48.228;16.398;2023-08-07T21:22:56;0.33;;;0.33;;
44854;SDS011;30591;48.228;16.398;2023-08-07T21:25:23;0.10;;;0.10;;
44854;SDS011;30591;48.228;16.398;2023-08-07T21:27:50;0.13;;;0.13;;
44854;SDS011;30591;48.228;16.398;2023-08-07T21:30:18;0.37;;;0.37;;
44854;SDS011;30591;48.228;16.398;2023-08-07T21:32:45;0.70;;;0.70;;
44854;SDS011;30591;48.228;16.398;2023-08-07T21:35:13;0.10;;;0.10;;
44854;SDS011;30591;48.228;16.398;2023-08-07T21:37:40;0.10;;;0.10;;
44854;SDS011;30591;48.228;16.398;2023-08-07T21:40:09;0.10;;;0.10;;
44854;SDS011;30591;48.228;16.398;2023-08-07T21:42:37;0.10;;;0.10;;
44854;SDS011;30591;48.228;16.398;2023-08-07T21:45:06;0.10;;;0.10;;
44854;SDS011;30591;48.228;16.398;2023-08-07T21:47:34;0.10;;;0.10;;
44854;SDS011;30591;48.228;16.398;2023-08-07T21:50:01;0.10;;;0.10;;
44854;SDS011;30591;48.228;16.398;2023-08-07T21:52:29;0.10;;;0.10;;
44854;SDS011;30591;48.228;16.398;2023-08-07T21:54:56;0.10;;;0.10;;
44854;SDS011;30591;48.228;16.398;2023-08-07T21:57:23;0.17;;;0.17;;
44854;SDS011;30591;48.228;16.398;2023-08-07T21:59:51;0.10;;;0.10;;
44854;SDS011;30591;48.228;16.398;2023-08-07T22:02:18;0.10;;;0.10;;
44854;SDS011;30591;48.228;16.398;2023-08-07T22:04:45;0.10;;;0.10;;
44854;SDS011;30591;48.228;16.398;2023-08-07T22:07:13;0.10;;;0.10;;
44854;SDS011;30591;48.228;16.398;2023-08-07T22:09:40;0.10;;;0.10;;
44854;SDS011;30591;48.228;16.398;2023-08-07T22:12:07;0.10;;;0.10;;
44854;SDS011;30591;48.228;16.398;2023-08-07T22:14:35;0.10;;;0.10;;
44854;SDS011;30591;48.228;16.398;2023-08-07T22:17:02;0.40;;;0.40;;
44854;SDS011;30591;48.228;16.398;2023-08-07T22:19:30;0.10;;;0.10;;
44854;SDS011;30591;48.228;16.398;2023-08-07T22:21:58;0.10;;;0.10;;
44854;SDS011;30591;48.228;16.398;2023-08-07T22:24:25;0.20;;;0.20;;
44854;SDS011;30591;48.228;16.398;2023-08-07T22:26:54;0.10;;;0.10;;
44854;SDS011;30591;48.228;16.398;2023-08-07T22:29:21;0.10;;;0.10;;
44854;SDS011;30591;48.228;16.398;2023-08-07T22:31:49;0.10;;;0.10;;
44854;SDS011;30591;48.228;16.398;2023-08-07T22:34:16;0.13;;;0.13;;
44854;SDS011;30591;48.228;16.398;2023-08-07T22:36:43;0.10;;;0.10;;
44854;SDS011;30591;48.228;16.398;2023-08-07T22:39:11;0.10;;;0.10;;
44854;SDS011;30591;48.228;16.398;2023-08-07T22:41:38;0.10;;;0.10;;
44854;SDS011;30591;48.228;16.398;2023-08-07T22:44:05;0.10;;;0.10;;
44854;SDS011;30591;48.228;16.398;2023-08-07T22:46:32;0.10;;;0.10;;
44854;SDS011;30591;48.228;16.398;2023-08-07T22:49:00;0.20;;;0.20;;
44854;SDS011;30591;48.228;16.398;2023-08-07T22:51:27;0.10;;;0.10;;
44854;SDS011;30591;48.228;16.398;2023-08-07T22:53:54;0.10;;;0.10;;
44854;SDS011;30591;48.228;16.398;2023-08-07T22:56:22;0.23;;;0.23;;
44854;SDS011;30591;48.228;16.398;2023-08-07T22:58:50;0.20;;;0.20;;
44854;SDS011;30591;48.228;16.398;2023-08-07T23:01:18;0.10;;;0.10;;
44854;SDS011;30591;48.228;16.398;2023-08-07T23:03:45;0.10;;;0.10;;
44854;SDS011;30591;48.228;16.398;2023-08-07T23:06:12;0.10;;;0.10;;
44854;SDS011;30591;48.228;16.398;2023-08-07T23:08:43;0.10;;;0.10;;
44854;SDS011;30591;48.228;16.398;2023-08-07T23:11:10;0.30;;;0.30;;
44854;SDS011;30591;48.228;16.398;2023-08-07T23:13:37;0.20;;;0.20;;
44854;SDS011;30591;48.228;16.398;2023-08-07T23:16:05;0.10;;;0.10;;
44854;SDS011;30591;48.228;16.398;2023-08-07T23:18:32;0.10;;;0.10;;
44854;SDS011;30591;48.228;16.398;2023-08-07T23:21:00;3.40;;;1.60;;
44854;SDS011;30591;48.228;16.398;2023-08-07T23:23:27;0.10;;;0.10;;
44854;SDS011;30591;48.228;16.398;2023-08-07T23:25:54;1.13;;;0.80;;
44854;SDS011;30591;48.228;16.398;2023-08-07T23:28:22;0.13;;;0.13;;
44854;SDS011;30591;48.228;16.398;2023-08-07T23:30:49;0.10;;;0.10;;
44854;SDS011;30591;48.228;16.398;2023-08-07T23:33:17;0.10;;;0.10;;
44854;SDS011;30591;48.228;16.398;2023-08-07T23:35:44;0.10;;;0.10;;
44854;SDS011;30591;48.228;16.398;2023-08-07T23:38:11;0.10;;;0.10;;
44854;SDS011;30591;48.228;16.398;2023-08-07T23:40:39;0.10;;;0.10;;
44854;SDS011;30591;48.228;16.398;2023-08-07T23:43:08;0.10;;;0.10;;
44854;SDS011;30591;48.228;16.398;2023-08-07T23:45:36;0.37;;;0.37;;
44854;SDS011;30591;48.228;16.398;2023-08-07T23:48:03;0.10;;;0.10;;
44854;SDS011;30591;48.228;16.398;2023-08-07T23:50:31;0.10;;;0.10;;
44854;SDS011;30591;48.228;16.398;2023-08-07T23:52:59;0.10;;;0.10;;
44854;SDS011;30591;48.228;16.398;2023-08-07T23:55:26;0.10;;;0.10;;
44854;SDS011;30591;48.228;16.398;2023-08-07T23:57:53;0.10;;;0.10;;
